createdAt,value
2019-03-13T00:01:09.839Z,4.00
2019-03-13T00:03:39.090Z,3.90
2019-03-13T00:06:09.008Z,3.90
2019-03-13T00:08:38.577Z,3.90
2019-03-13T00:11:08.420Z,3.90
2019-03-13T00:13:37.992Z,3.90
2019-03-13T00:16:07.958Z,3.80
2019-03-13T00:18:37.313Z,3.90
2019-03-13T00:21:07.004Z,3.90
2019-03-13T00:23:36.528Z,3.80
2019-03-13T00:26:06.041Z,3.80
2019-03-13T00:28:36.066Z,3.90
2019-03-13T00:31:05.362Z,3.90
2019-03-13T00:33:34.172Z,3.90
2019-03-13T00:36:04.219Z,4.00
2019-03-13T00:38:33.713Z,4.00
2019-03-13T00:41:02.920Z,3.90
2019-03-13T00:43:31.723Z,3.90
2019-03-13T00:46:03.644Z,3.90
2019-03-13T00:48:32.799Z,3.90
2019-03-13T00:51:05.000Z,4.00
2019-03-13T00:53:34.074Z,3.90
2019-03-13T00:56:02.958Z,3.90
2019-03-13T00:58:32.468Z,3.80
2019-03-13T01:01:19.419Z,3.70
2019-03-13T01:04:16.963Z,3.70
2019-03-13T01:06:49.284Z,3.70
2019-03-13T01:09:18.179Z,3.70
2019-03-13T01:11:47.611Z,3.70
2019-03-13T01:14:16.697Z,3.70
2019-03-13T01:16:46.209Z,3.70
2019-03-13T01:19:16.000Z,3.60
2019-03-13T01:21:45.160Z,3.60
2019-03-13T01:24:14.407Z,3.50
2019-03-13T01:26:43.413Z,3.50
2019-03-13T01:29:16.296Z,3.50
2019-03-13T01:32:19.897Z,3.50
2019-03-13T01:35:02.926Z,3.40
2019-03-13T01:37:32.129Z,3.40
2019-03-13T01:40:01.755Z,3.30
2019-03-13T01:42:31.229Z,3.30
2019-03-13T01:45:04.656Z,3.30
2019-03-13T01:47:34.564Z,3.30
2019-03-13T01:50:04.687Z,3.30
2019-03-13T01:52:34.067Z,3.20
2019-03-13T01:55:03.051Z,3.20
2019-03-13T01:57:32.147Z,3.20
2019-03-13T02:00:01.439Z,3.20
2019-03-13T02:02:30.348Z,3.20
2019-03-13T02:04:59.747Z,3.20
2019-03-13T02:07:28.627Z,3.20
2019-03-13T02:09:57.625Z,3.20
2019-03-13T02:12:26.747Z,3.20
2019-03-13T02:14:55.644Z,3.10
2019-03-13T02:17:24.579Z,3.20
2019-03-13T02:19:53.423Z,3.10
2019-03-13T02:22:22.772Z,3.10
2019-03-13T02:24:54.192Z,3.20
2019-03-13T02:27:23.340Z,3.20
2019-03-13T02:29:52.848Z,3.30
2019-03-13T02:32:22.163Z,3.30
2019-03-13T02:34:51.038Z,3.20
2019-03-13T02:37:20.457Z,3.20
2019-03-13T02:39:49.245Z,3.10
2019-03-13T02:42:18.832Z,3.10
2019-03-13T02:44:47.933Z,3.10
2019-03-13T02:47:19.142Z,3.20
2019-03-13T02:49:48.477Z,3.20
2019-03-13T02:52:17.724Z,3.30
2019-03-13T02:54:47.279Z,3.30
2019-03-13T02:57:16.512Z,3.30
2019-03-13T02:59:46.453Z,3.20
2019-03-13T03:02:38.448Z,3.20
2019-03-13T03:05:07.735Z,3.20
2019-03-13T03:07:37.103Z,3.20
2019-03-13T03:10:06.762Z,3.10
2019-03-13T03:12:36.252Z,3.20
2019-03-13T03:15:12.103Z,3.20
2019-03-13T03:17:40.912Z,3.30
2019-03-13T03:20:12.268Z,3.40
2019-03-13T03:22:41.662Z,3.50
2019-03-13T03:25:11.217Z,3.60
2019-03-13T03:27:40.196Z,3.60
2019-03-13T03:30:12.813Z,3.70
2019-03-13T03:32:42.775Z,3.70
2019-03-13T03:35:12.583Z,3.70
2019-03-13T03:37:41.971Z,3.80
2019-03-13T03:40:12.933Z,3.90
2019-03-13T03:42:42.207Z,3.90
2019-03-13T03:45:11.508Z,3.90
2019-03-13T03:47:40.808Z,3.90
2019-03-13T03:50:11.094Z,4.00
2019-03-13T03:52:40.303Z,4.00
2019-03-13T03:55:09.303Z,4.10
2019-03-13T03:57:38.915Z,4.00
2019-03-13T04:00:08.892Z,4.10
2019-03-13T04:02:37.788Z,4.00
2019-03-13T04:05:07.580Z,3.90
2019-03-13T04:07:36.669Z,4.00
2019-03-13T04:10:06.120Z,4.00
2019-03-13T04:12:34.921Z,3.90
2019-03-13T04:15:03.885Z,4.00
2019-03-13T04:17:33.343Z,4.10
2019-03-13T04:20:03.120Z,4.10
2019-03-13T04:22:32.418Z,4.20
2019-03-13T04:25:30.538Z,4.20
2019-03-13T04:28:00.035Z,4.00
2019-03-13T04:30:29.087Z,3.90
2019-03-13T04:32:58.187Z,3.90
2019-03-13T04:35:27.226Z,3.80
2019-03-13T04:37:56.377Z,3.80
2019-03-13T04:40:25.311Z,3.80
2019-03-13T04:42:54.514Z,4.00
2019-03-13T04:45:23.399Z,3.90
2019-03-13T04:47:52.372Z,4.00
2019-03-13T04:50:22.167Z,4.00
2019-03-13T04:52:51.063Z,3.90
2019-03-13T04:55:20.247Z,3.90
2019-03-13T04:57:49.888Z,3.90
2019-03-13T05:00:18.896Z,3.90
2019-03-13T05:02:47.983Z,3.80
2019-03-13T05:05:41.985Z,3.80
2019-03-13T05:08:13.151Z,3.70
2019-03-13T05:10:42.311Z,3.70
2019-03-13T05:13:11.719Z,3.70
2019-03-13T05:15:40.891Z,3.70
2019-03-13T05:18:10.580Z,3.70
2019-03-13T05:20:40.092Z,3.70
2019-03-13T05:23:09.207Z,3.80
2019-03-13T05:25:38.683Z,3.90
2019-03-13T05:28:08.113Z,4.00
2019-03-13T05:30:38.003Z,4.00
2019-03-13T05:33:06.859Z,4.10
2019-03-13T05:35:35.724Z,4.10
2019-03-13T05:38:04.595Z,4.10
2019-03-13T05:40:33.889Z,4.00
2019-03-13T05:43:04.808Z,4.00
2019-03-13T05:45:33.799Z,4.00
2019-03-13T05:48:03.738Z,4.00
2019-03-13T05:50:32.810Z,4.00
2019-03-13T05:53:03.642Z,4.10
2019-03-13T05:55:32.949Z,4.00
2019-03-13T05:58:05.732Z,4.10
2019-03-13T06:00:34.680Z,4.10
2019-03-13T06:03:03.523Z,4.10
2019-03-13T06:05:32.640Z,4.10
2019-03-13T06:08:02.212Z,4.10
2019-03-13T06:10:30.983Z,4.00
2019-03-13T06:13:00.399Z,4.10
2019-03-13T06:15:30.227Z,4.00
2019-03-13T06:17:59.540Z,3.90
2019-03-13T06:20:29.130Z,4.00
2019-03-13T06:22:58.573Z,4.20
2019-03-13T06:25:27.635Z,4.30
2019-03-13T06:27:57.507Z,4.20
2019-03-13T06:30:26.684Z,4.20
2019-03-13T06:32:55.603Z,4.10
2019-03-13T06:35:24.946Z,4.20
2019-03-13T06:37:54.080Z,4.20
2019-03-13T06:40:23.067Z,4.20
2019-03-13T06:42:52.517Z,4.20
2019-03-13T06:45:23.349Z,4.30
2019-03-13T06:47:52.652Z,4.20
2019-03-13T06:50:22.160Z,4.20
2019-03-13T06:52:51.248Z,4.30
2019-03-13T06:55:20.276Z,4.50
2019-03-13T06:57:49.853Z,4.80
2019-03-13T07:00:45.873Z,4.70
2019-03-13T07:03:49.328Z,4.70
2019-03-13T07:06:24.629Z,4.80
2019-03-13T07:09:08.257Z,5.00
2019-03-13T07:11:50.563Z,5.20
2019-03-13T07:14:27.651Z,5.40
2019-03-13T07:17:19.375Z,5.40
2019-03-13T07:20:17.471Z,5.30
2019-03-13T07:23:08.969Z,5.10
2019-03-13T07:25:52.503Z,5.20
2019-03-13T07:28:40.684Z,5.10
2019-03-13T07:31:34.551Z,5.00
2019-03-13T07:34:31.925Z,4.80
2019-03-13T07:37:29.349Z,4.80
2019-03-13T07:40:26.388Z,4.90
2019-03-13T07:43:17.308Z,4.90
2019-03-13T07:46:04.415Z,5.20
2019-03-13T07:48:53.064Z,5.20
2019-03-13T07:51:41.516Z,5.20
2019-03-13T07:54:27.310Z,5.30
2019-03-13T07:57:21.688Z,5.30
2019-03-13T07:59:58.446Z,5.30
2019-03-13T08:02:45.003Z,5.40
2019-03-13T08:05:36.799Z,5.60
2019-03-13T08:08:16.550Z,5.90
2019-03-13T08:11:10.623Z,5.70
2019-03-13T08:14:08.289Z,5.70
2019-03-13T08:16:58.796Z,5.60
2019-03-13T08:19:47.069Z,5.70
2019-03-13T08:22:29.310Z,5.80
2019-03-13T08:25:12.871Z,5.90
2019-03-13T08:28:04.905Z,5.70
2019-03-13T08:30:42.901Z,5.70
2019-03-13T08:33:30.471Z,5.70
2019-03-13T08:36:27.663Z,5.60
2019-03-13T08:39:22.180Z,5.50
2019-03-13T08:42:10.312Z,5.30
2019-03-13T08:44:48.740Z,5.50
2019-03-13T08:47:46.117Z,5.50
2019-03-13T08:50:37.516Z,5.50
2019-03-13T08:53:31.700Z,5.70
2019-03-13T08:56:15.743Z,5.70
2019-03-13T08:58:55.271Z,5.60
2019-03-13T09:01:51.716Z,5.80
2019-03-13T09:04:36.164Z,6.00
2019-03-13T09:07:23.098Z,6.10
2019-03-13T09:10:22.628Z,6.10
2019-03-13T09:13:15.147Z,6.00
2019-03-13T09:16:12.604Z,6.10
2019-03-13T09:18:56.907Z,6.30
2019-03-13T09:21:52.060Z,6.10
2019-03-13T09:24:34.619Z,6.10
2019-03-13T09:27:22.907Z,5.90
2019-03-13T09:30:03.812Z,6.10
2019-03-13T09:32:50.700Z,6.30
2019-03-13T09:35:37.616Z,6.10
2019-03-13T09:38:27.181Z,6.00
2019-03-13T09:41:21.191Z,5.90
2019-03-13T09:44:00.023Z,6.10
2019-03-13T09:46:52.468Z,6.20
2019-03-13T09:49:46.821Z,6.40
2019-03-13T09:52:27.151Z,6.30
2019-03-13T09:55:16.755Z,6.40
2019-03-13T09:58:11.027Z,6.40
2019-03-13T10:00:56.371Z,6.80
2019-03-13T10:03:51.117Z,6.90
2019-03-13T10:06:33.107Z,7.10
2019-03-13T10:09:21.892Z,7.20
2019-03-13T10:12:06.436Z,7.40
2019-03-13T10:14:45.255Z,7.30
2019-03-13T10:17:27.136Z,7.40
2019-03-13T10:20:13.324Z,7.50
2019-03-13T10:22:51.439Z,7.50
2019-03-13T10:25:39.599Z,7.90
2019-03-13T10:28:19.858Z,8.10
2019-03-13T10:31:13.939Z,8.00
2019-03-13T10:34:09.122Z,8.00
2019-03-13T10:36:50.700Z,8.20
2019-03-13T10:39:47.927Z,8.10
2019-03-13T10:42:39.687Z,8.00
2019-03-13T10:45:39.761Z,7.70
2019-03-13T10:48:26.849Z,7.30
2019-03-13T10:51:16.909Z,7.80
2019-03-13T10:54:04.062Z,7.90
2019-03-13T10:56:40.291Z,8.00
2019-03-13T10:59:37.876Z,8.00
2019-03-13T11:02:16.709Z,7.80
2019-03-13T11:04:58.659Z,7.70
2019-03-13T11:08:06.332Z,7.70
2019-03-13T11:10:55.260Z,7.70
2019-03-13T11:13:34.488Z,7.50
2019-03-13T11:16:23.344Z,7.00
2019-03-13T11:18:58.455Z,6.90
2019-03-13T11:21:53.364Z,7.10
2019-03-13T11:24:50.233Z,7.30
2019-03-13T11:27:28.120Z,7.30
2019-03-13T11:30:06.136Z,7.10
2019-03-13T11:32:48.554Z,6.90
2019-03-13T11:35:39.632Z,6.90
2019-03-13T11:38:19.508Z,7.40
2019-03-13T11:41:06.195Z,7.70
2019-03-13T11:43:57.838Z,7.80
2019-03-13T11:46:35.733Z,8.00
2019-03-13T11:49:13.541Z,8.50
2019-03-13T11:52:05.367Z,8.90
2019-03-13T11:54:44.913Z,9.30
2019-03-13T11:57:32.016Z,9.60
2019-03-13T12:00:28.274Z,10.00
2019-03-13T12:03:16.600Z,10.20
2019-03-13T12:06:04.905Z,10.10
2019-03-13T12:08:53.455Z,10.20
2019-03-13T12:11:34.883Z,9.90
2019-03-13T12:14:22.908Z,9.40
2019-03-13T12:17:06.796Z,8.90
2019-03-13T12:20:02.595Z,8.50
2019-03-13T12:22:50.112Z,8.30
2019-03-13T12:25:37.185Z,7.90
2019-03-13T12:28:16.476Z,7.80
2019-03-13T12:31:04.716Z,7.80
2019-03-13T12:34:00.735Z,7.80
2019-03-13T12:36:55.236Z,7.80
2019-03-13T12:39:33.849Z,8.10
2019-03-13T12:42:21.084Z,8.30
2019-03-13T12:45:05.225Z,8.60
2019-03-13T12:47:52.642Z,8.40
2019-03-13T12:50:44.021Z,8.20
2019-03-13T12:53:32.405Z,8.00
2019-03-13T12:56:23.516Z,7.80
2019-03-13T12:59:10.846Z,7.70
2019-03-13T13:02:01.643Z,7.50
2019-03-13T13:04:48.619Z,7.40
2019-03-13T13:07:35.676Z,7.60
2019-03-13T13:10:36.693Z,7.60
2019-03-13T13:13:23.273Z,7.80
2019-03-13T13:16:14.116Z,7.90
2019-03-13T13:18:55.775Z,7.80
2019-03-13T13:21:25.430Z,8.10
2019-03-13T13:23:54.340Z,7.90
2019-03-13T13:26:23.908Z,8.00
2019-03-13T13:28:52.800Z,8.10
2019-03-13T13:31:22.360Z,8.00
2019-03-13T13:33:51.623Z,7.70
2019-03-13T13:36:21.019Z,7.50
2019-03-13T13:38:50.120Z,7.50
2019-03-13T13:41:19.083Z,7.40
2019-03-13T13:43:48.398Z,7.20
2019-03-13T13:46:20.811Z,7.10
2019-03-13T13:48:50.087Z,7.00
2019-03-13T13:51:19.290Z,7.00
2019-03-13T13:53:48.471Z,7.00
2019-03-13T13:56:17.880Z,6.90
2019-03-13T13:58:48.001Z,7.10
2019-03-13T14:01:17.301Z,7.30
2019-03-13T14:03:46.198Z,7.30
2019-03-13T14:06:15.493Z,7.30
2019-03-13T14:08:45.207Z,7.20
2019-03-13T14:11:15.121Z,7.40
2019-03-13T14:13:44.048Z,7.50
2019-03-13T14:16:12.908Z,7.40
2019-03-13T14:18:42.277Z,7.40
2019-03-13T14:21:11.579Z,7.20
2019-03-13T14:23:40.944Z,7.00
2019-03-13T14:26:10.536Z,6.90
2019-03-13T14:28:39.367Z,6.90
2019-03-13T14:31:08.624Z,7.00
2019-03-13T14:33:38.102Z,7.10
2019-03-13T14:36:07.220Z,7.00
2019-03-13T14:38:36.196Z,6.90
2019-03-13T14:41:05.244Z,6.90
2019-03-13T14:43:34.887Z,6.90
2019-03-13T14:46:04.524Z,6.90
2019-03-13T14:48:33.472Z,6.80
2019-03-13T14:51:03.000Z,6.80
2019-03-13T14:53:32.034Z,6.80
2019-03-13T14:56:03.671Z,6.90
2019-03-13T14:58:32.801Z,6.90
2019-03-13T15:01:04.001Z,6.70
2019-03-13T15:03:33.160Z,6.60
2019-03-13T15:06:02.735Z,6.50
2019-03-13T15:08:31.715Z,6.20
2019-03-13T15:11:00.489Z,6.10
2019-03-13T15:13:29.415Z,5.90
2019-03-13T15:15:58.520Z,5.80
2019-03-13T15:18:28.156Z,5.90
2019-03-13T15:20:57.464Z,5.90
2019-03-13T15:23:26.869Z,5.90
2019-03-13T15:25:56.476Z,6.00
2019-03-13T15:28:25.980Z,6.10
2019-03-13T15:30:55.677Z,6.10
2019-03-13T15:33:24.886Z,6.10
2019-03-13T15:35:54.120Z,6.10
2019-03-13T15:38:23.315Z,6.10
2019-03-13T15:40:52.888Z,6.00
2019-03-13T15:43:22.504Z,6.00
2019-03-13T15:45:51.350Z,6.00
2019-03-13T15:48:20.632Z,6.00
2019-03-13T15:50:50.427Z,6.00
2019-03-13T15:53:19.431Z,6.00
2019-03-13T15:55:48.444Z,6.10
2019-03-13T15:58:17.551Z,6.20
2019-03-13T16:00:46.758Z,6.20
2019-03-13T16:03:17.041Z,6.00
2019-03-13T16:05:46.603Z,5.90
2019-03-13T16:08:15.912Z,5.90
2019-03-13T16:10:45.000Z,5.70
2019-03-13T16:13:14.612Z,5.70
2019-03-13T16:15:46.194Z,5.60
2019-03-13T16:18:15.473Z,5.60
2019-03-13T16:20:44.597Z,5.60
2019-03-13T16:23:17.050Z,5.50
2019-03-13T16:25:45.936Z,5.30
2019-03-13T16:28:15.129Z,5.10
2019-03-13T16:30:44.895Z,4.90
2019-03-13T16:33:14.207Z,4.90
2019-03-13T16:35:43.081Z,4.80
2019-03-13T16:38:12.429Z,4.80
2019-03-13T16:40:41.708Z,4.80
2019-03-13T16:43:11.398Z,4.80
2019-03-13T16:45:41.004Z,4.80
2019-03-13T16:48:10.143Z,4.70
2019-03-13T16:50:39.449Z,4.70
2019-03-13T16:53:09.115Z,4.70
2019-03-13T16:55:39.067Z,4.60
2019-03-13T16:58:08.296Z,4.60
2019-03-13T17:00:37.452Z,4.60
2019-03-13T17:03:07.069Z,4.70
2019-03-13T17:05:36.193Z,4.70
2019-03-13T17:08:05.163Z,4.70
2019-03-13T17:10:34.431Z,4.70
2019-03-13T17:13:05.483Z,4.80
2019-03-13T17:15:34.701Z,4.80
2019-03-13T17:18:04.251Z,4.90
2019-03-13T17:20:33.254Z,4.90
2019-03-13T17:23:03.656Z,4.80
2019-03-13T17:25:32.604Z,4.90
2019-03-13T17:28:02.024Z,4.90
2019-03-13T17:30:31.011Z,4.90
2019-03-13T17:33:00.245Z,4.80
2019-03-13T17:35:29.473Z,4.80
2019-03-13T17:37:58.783Z,4.90
2019-03-13T17:40:27.811Z,4.90
2019-03-13T17:42:56.792Z,4.80
2019-03-13T17:45:26.151Z,4.80
2019-03-13T17:47:56.007Z,4.70
2019-03-13T17:50:25.223Z,4.70
2019-03-13T17:52:54.215Z,4.60
2019-03-13T17:55:23.494Z,4.40
2019-03-13T17:57:52.432Z,4.30
2019-03-13T18:00:27.595Z,4.30
2019-03-13T18:02:56.868Z,4.30
2019-03-13T18:05:25.760Z,4.30
2019-03-13T18:07:54.692Z,4.10
2019-03-13T18:10:24.764Z,4.00
2019-03-13T18:12:53.920Z,3.90
2019-03-13T18:15:23.488Z,3.80
2019-03-13T18:17:52.780Z,3.80
2019-03-13T18:20:21.803Z,3.80
2019-03-13T18:22:51.450Z,3.70
2019-03-13T18:25:20.541Z,3.60
2019-03-13T18:27:49.660Z,3.40
2019-03-13T18:30:20.728Z,3.20
2019-03-13T18:32:49.708Z,3.10
2019-03-13T18:35:19.052Z,3.00
2019-03-13T18:37:48.231Z,3.00
2019-03-13T18:40:17.349Z,3.00
2019-03-13T18:42:46.609Z,3.00
2019-03-13T18:45:17.987Z,3.10
2019-03-13T18:47:47.482Z,3.10
2019-03-13T18:50:16.862Z,3.10
2019-03-13T18:52:45.874Z,3.10
2019-03-13T18:55:16.549Z,3.10
2019-03-13T18:57:46.129Z,3.20
2019-03-13T19:00:23.318Z,3.20
2019-03-13T19:02:52.707Z,3.30
2019-03-13T19:05:22.265Z,3.30
2019-03-13T19:07:51.465Z,3.20
2019-03-13T19:10:20.542Z,3.30
2019-03-13T19:12:49.910Z,3.30
2019-03-13T19:15:19.798Z,3.30
2019-03-13T19:17:49.364Z,3.20
2019-03-13T19:20:19.652Z,3.20
2019-03-13T19:22:49.179Z,3.20
2019-03-13T19:25:18.167Z,3.20
2019-03-13T19:27:47.138Z,3.20
2019-03-13T19:30:21.437Z,3.30
2019-03-13T19:32:50.974Z,3.20
2019-03-13T19:35:19.955Z,3.30
2019-03-13T19:37:48.972Z,3.30
2019-03-13T19:40:18.031Z,3.30
2019-03-13T19:42:47.311Z,3.30
2019-03-13T19:45:22.315Z,3.40
2019-03-13T19:47:51.557Z,3.40
2019-03-13T19:50:21.107Z,3.40
2019-03-13T19:52:49.924Z,3.40
2019-03-13T19:55:18.793Z,3.40
2019-03-13T19:57:47.907Z,3.40
2019-03-13T20:00:18.832Z,3.40
2019-03-13T20:02:59.320Z,3.50
2019-03-13T20:05:18.857Z,3.50
2019-03-13T20:07:48.865Z,3.60
2019-03-13T20:10:20.154Z,3.60
2019-03-13T20:12:49.107Z,3.60
2019-03-13T20:15:19.280Z,3.60
2019-03-13T20:17:48.849Z,3.60
2019-03-13T20:20:18.732Z,3.60
2019-03-13T20:22:48.639Z,3.70
2019-03-13T20:25:18.341Z,3.70
2019-03-13T20:27:47.878Z,3.70
2019-03-13T20:30:18.348Z,3.60
2019-03-13T20:32:48.066Z,3.60
2019-03-13T20:35:17.572Z,3.60
2019-03-13T20:37:47.186Z,3.50
2019-03-13T20:40:18.834Z,3.40
2019-03-13T20:42:48.129Z,3.40
2019-03-13T20:45:21.735Z,3.40
2019-03-13T20:47:50.965Z,3.40
2019-03-13T20:50:20.652Z,3.30
2019-03-13T20:52:49.727Z,3.30
2019-03-13T20:55:18.719Z,3.30
2019-03-13T20:57:47.941Z,3.30
2019-03-13T21:00:22.473Z,3.20
2019-03-13T21:02:51.673Z,3.20
2019-03-13T21:05:20.958Z,3.00
2019-03-13T21:07:50.171Z,3.00
2019-03-13T21:10:19.615Z,3.00
2019-03-13T21:12:49.653Z,2.90
2019-03-13T21:15:18.919Z,2.90
2019-03-13T21:17:48.404Z,3.00
2019-03-13T21:20:17.732Z,3.00
2019-03-13T21:22:47.004Z,3.10
2019-03-13T21:25:16.432Z,3.10
2019-03-13T21:27:47.837Z,3.10
2019-03-13T21:30:19.119Z,3.20
2019-03-13T21:32:48.289Z,3.20
2019-03-13T21:35:17.511Z,3.20
2019-03-13T21:37:47.763Z,3.10
2019-03-13T21:40:17.360Z,3.10
2019-03-13T21:42:46.885Z,3.10
2019-03-13T21:45:22.147Z,3.00
2019-03-13T21:47:48.561Z,3.00
2019-03-13T21:50:17.724Z,3.00
2019-03-13T21:52:46.689Z,3.00
2019-03-13T21:55:15.940Z,2.90
2019-03-13T21:57:45.068Z,3.00
2019-03-13T22:00:19.268Z,3.00
2019-03-13T22:02:48.638Z,3.00
2019-03-13T22:05:25.673Z,3.00
2019-03-13T22:07:48.563Z,3.00
2019-03-13T22:10:18.129Z,3.00
2019-03-13T22:12:47.684Z,3.00
2019-03-13T22:15:16.665Z,3.00
2019-03-13T22:17:46.583Z,3.00
2019-03-13T22:20:16.343Z,3.10
2019-03-13T22:22:46.257Z,3.20
2019-03-13T22:25:15.370Z,3.30
2019-03-13T22:27:44.601Z,3.40
2019-03-13T22:30:17.333Z,3.40
2019-03-13T22:32:47.016Z,3.30
2019-03-13T22:35:16.387Z,3.30
2019-03-13T22:37:45.690Z,3.20
2019-03-13T22:40:14.987Z,3.20
2019-03-13T22:42:44.503Z,3.20
2019-03-13T22:45:13.896Z,3.20
2019-03-13T22:47:43.891Z,3.10
2019-03-13T22:50:15.223Z,3.10
2019-03-13T22:52:44.912Z,3.10
2019-03-13T22:55:14.373Z,3.10
2019-03-13T22:57:43.516Z,3.10
2019-03-13T23:00:35.851Z,3.20
2019-03-13T23:03:05.133Z,3.20
2019-03-13T23:05:36.110Z,3.20
2019-03-13T23:08:06.797Z,3.20
2019-03-13T23:10:36.603Z,3.20
2019-03-13T23:13:05.520Z,3.20
2019-03-13T23:15:35.260Z,3.20
2019-03-13T23:18:04.195Z,3.20
2019-03-13T23:20:33.795Z,3.20
2019-03-13T23:23:03.304Z,3.20
2019-03-13T23:25:32.632Z,3.10
2019-03-13T23:28:01.531Z,3.20
2019-03-13T23:30:30.897Z,3.20
2019-03-13T23:32:59.894Z,3.30
2019-03-13T23:35:29.634Z,3.40
2019-03-13T23:37:58.908Z,3.40
2019-03-13T23:40:28.092Z,3.40
2019-03-13T23:42:56.999Z,3.50
2019-03-13T23:45:27.150Z,3.40
2019-03-13T23:47:56.814Z,3.40
2019-03-13T23:50:26.199Z,3.40
2019-03-13T23:52:55.140Z,3.40
2019-03-13T23:55:24.156Z,3.40
2019-03-13T23:57:53.448Z,3.30
